< Cyclone 199613 1996 Season Cyclone 199615 >
Cyclone 199614 (OLIVIA)
General InformationTrack Information on Google MapsDetailed Wind InformationList of All Images || ResourceGoogle EarthGE AnimationAtom FeedGeoJSON
Detalied Best Track (Time Zone = UTC)
Year Month Day Hour Lat. Long. Pressure (hPa) Wind (kt) Class Image Chart
1996 4 3 13 -8.4 133.0 1004 20 2 Image --
1996 4 3 19 -8.6 132.2 1002 25 2 Image --
1996 4 4 01 -8.9 130.7 1002 25 2 Image --
1996 4 4 07 -9.3 130.1 1000 25 2 Image --
1996 4 4 13 -9.7 129.5 1000 25 2 Image --
1996 4 4 19 -10.3 129.2 1000 25 2 Image --
1996 4 5 01 -10.9 128.9 996 30 2 Image --
1996 4 5 07 -12.0 128.3 996 30 2 Image --
1996 4 5 13 -12.4 127.6 996 30 2 Image --
1996 4 5 19 -12.6 126.8 996 30 2 Image --
1996 4 6 01 -12.7 125.9 990 40 3 Image --
1996 4 6 04 -12.8 125.4 990 40 3 Image --
1996 4 6 07 -12.8 124.9 985 50 4 Image --
1996 4 6 10 -12.9 124.4 985 50 4 Image --
1996 4 6 13 -13.0 123.9 985 50 4 Image --
1996 4 6 16 -13.1 123.3 985 50 4 Image --
1996 4 6 19 -13.2 122.8 985 50 4 Image --
1996 4 6 22 -13.3 122.3 985 50 4 Image --
1996 4 7 01 -13.4 121.8 985 50 4 Image --
1996 4 7 04 -13.5 121.2 980 55 4 Image --
1996 4 7 07 -13.6 120.6 980 55 4 Image --
1996 4 7 10 -13.6 120.2 975 60 4 Image --
1996 4 7 13 -13.6 119.8 975 60 4 Image --
1996 4 7 16 -13.6 119.4 975 60 4 Image --
1996 4 7 19 -13.6 119.0 970 65 5 Image --
1996 4 7 22 -13.6 118.6 970 65 5 Image --
1996 4 8 01 -13.6 118.2 965 70 5 Image --
1996 4 8 04 -13.7 118.0 965 70 5 Image --
1996 4 8 07 -13.8 117.8 965 70 5 Image --
1996 4 8 10 -13.9 117.6 960 75 5 Image --
1996 4 8 13 -14.1 117.4 960 75 5 Image --
1996 4 8 16 -14.3 117.2 960 75 5 Image --
1996 4 8 19 -14.5 117.1 955 80 5 Image --
1996 4 8 22 -14.7 116.9 950 85 5 Image --
1996 4 9 01 -15.0 116.7 945 90 5 Image --
1996 4 9 04 -15.4 116.3 940 95 5 Image --
1996 4 9 07 -15.9 115.9 935 95 5 Image --
1996 4 9 10 -16.3 115.6 930 100 5 Image --
1996 4 9 13 -16.8 115.2 925 105 5 Image --
1996 4 9 16 -17.2 115.0 925 105 5 Image --
1996 4 9 19 -17.6 114.8 925 105 5 Image --
1996 4 9 22 -18.0 114.8 925 105 5 Image --
1996 4 10 01 -18.6 114.8 925 105 5 Image --
1996 4 10 04 -19.2 115.0 925 105 5 Image --
1996 4 10 07 -19.7 115.2 925 105 5 Image --
1996 4 10 10 -20.4 115.5 925 105 5 Image --
1996 4 10 13 -21.3 116.0 930 105 5 Image --
1996 4 10 16 -22.2 116.6 945 90 5 Image --
1996 4 10 19 -23.2 117.3 970 65 5 Image --
1996 4 10 22 -24.1 118.0 975 60 4 Image --
1996 4 11 01 -25.0 118.8 980 55 4 Image --
1996 4 11 04 -25.9 119.8 980 55 4 Image --
1996 4 11 07 -26.8 120.9 985 45 3 Image --
1996 4 11 10 -27.7 122.1 990 40 3 Image --
1996 4 11 13 -28.7 123.3 990 40 3 Image --
1996 4 11 16 -29.7 125.0 990 40 3 Image --
1996 4 11 19 -30.6 126.7 995 35 3 Image --
1996 4 11 22 -31.6 128.5 995 35 3 Image --
1996 4 12 01 -32.7 130.2 995 30 2 Image --
1996 4 12 04 -33.7 131.9 995 30 2 Image --
< Cyclone 199613 1996 Season Cyclone 199615 >

Help